createdAt,value
2022-11-18T00:01:40.799Z,100070.31
2022-11-18T00:05:03.683Z,100071.28
2022-11-18T00:08:18.919Z,100056.84
2022-11-18T00:57:25.407Z,100090.75
2022-11-18T01:04:27.917Z,100100.38
2022-11-18T01:08:25.006Z,100108.13
2022-11-18T01:11:48.660Z,100102.97
2022-11-18T01:14:53.358Z,100102.19
2022-11-18T01:17:58.012Z,100100.53
2022-11-18T01:21:04.467Z,100102.34
2022-11-18T01:24:11.468Z,100100.53
2022-11-18T01:27:16.117Z,100105.88
2022-11-18T01:30:21.012Z,100115.53
2022-11-18T01:33:30.098Z,100100.09
2022-11-18T01:36:53.725Z,100113.03
2022-11-18T01:40:00.380Z,100111.41
2022-11-18T01:43:20.779Z,100108.88
2022-11-18T01:46:28.953Z,100119.19
2022-11-18T01:49:32.997Z,100119.97
2022-11-18T01:52:39.588Z,100129.34
2022-11-18T01:55:48.546Z,100133.72
2022-11-18T01:59:01.898Z,100132.03
2022-11-18T02:02:12.407Z,100133.78
2022-11-18T02:05:17.457Z,100145.94
2022-11-18T02:08:23.537Z,100141.56
2022-11-18T02:11:51.380Z,100139.03
2022-11-18T02:14:55.870Z,100142.56
2022-11-18T02:18:36.106Z,100139.22
2022-11-18T02:22:39.311Z,100146.13
2022-11-18T02:26:08.140Z,100155.66
2022-11-18T02:29:21.343Z,100149.53
2022-11-18T02:32:35.955Z,100152.13
2022-11-18T02:35:53.822Z,100154.63
2022-11-18T02:39:13.432Z,100152.06
2022-11-18T02:42:19.015Z,100164.97
2022-11-18T02:45:26.454Z,100159.03
2022-11-18T02:48:35.769Z,100166.75
2022-11-18T02:51:42.123Z,100161.56
2022-11-18T02:54:49.819Z,100165.94
2022-11-18T02:58:00.183Z,100164.97
2022-11-18T03:01:08.361Z,100173.63
2022-11-18T03:04:19.550Z,100185.75
2022-11-18T03:07:36.685Z,100177.16
2022-11-18T03:11:18.866Z,100176.34
2022-11-18T03:15:00.432Z,100178.94
2022-11-18T03:19:04.018Z,100183.28
2022-11-18T03:22:55.546Z,100180.59
2022-11-18T03:26:17.861Z,100190.94
2022-11-18T03:29:34.947Z,100194.31
2022-11-18T03:33:02.525Z,100188.41
2022-11-18T03:36:22.031Z,100194.47
2022-11-18T03:39:35.287Z,100199.69
2022-11-18T03:43:29.066Z,100189.47
2022-11-18T03:47:56.105Z,100197.97
2022-11-18T03:51:19.756Z,100193.94
2022-11-18T04:13:39.386Z,100219.81
2022-11-18T06:20:15.387Z,100348.16
2022-11-18T06:40:37.481Z,100376.91
2022-11-18T06:44:06.183Z,100386.31
2022-11-18T06:48:54.638Z,100388.84
2022-11-18T07:16:48.039Z,100413.97
2022-11-18T07:30:30.993Z,100436.34
2022-11-18T08:05:17.665Z,100466.13
2022-11-18T08:08:41.173Z,100467.91
2022-11-18T08:15:51.839Z,100474.50
2022-11-18T08:19:29.270Z,100476.22
2022-11-18T08:22:49.309Z,100467.63
2022-11-18T08:26:23.329Z,100475.34
2022-11-18T08:29:44.351Z,100471.78
2022-11-18T08:32:58.238Z,100476.84
2022-11-18T08:36:28.073Z,100471.69
2022-11-18T08:39:41.149Z,100472.38
2022-11-18T08:42:47.584Z,100486.22
2022-11-18T08:45:58.216Z,100492.16
2022-11-18T08:49:08.656Z,100484.50
2022-11-18T08:52:16.319Z,100487.09
2022-11-18T08:55:20.911Z,100492.06
2022-11-18T08:58:30.461Z,100491.13
2022-11-18T09:01:41.800Z,100509.97
2022-11-18T09:04:54.590Z,100515.91
2022-11-18T09:08:03.339Z,100505.59
2022-11-18T09:11:11.800Z,100517.53
2022-11-18T09:17:49.062Z,100527.88
2022-11-18T09:21:06.104Z,100526.19
2022-11-18T09:24:11.909Z,100523.63
2022-11-18T09:27:17.627Z,100525.25
2022-11-18T09:30:22.933Z,100531.22
2022-11-18T09:33:31.265Z,100538.88
2022-11-18T09:36:36.396Z,100556.06
2022-11-18T09:39:43.163Z,100545.69
2022-11-18T09:43:46.885Z,100554.25
2022-11-18T09:47:26.578Z,100550.66
2022-11-18T09:50:49.669Z,100554.16
2022-11-18T09:53:59.860Z,100549.91
2022-11-18T09:57:18.792Z,100545.50
2022-11-18T10:00:34.604Z,100539.50
2022-11-18T10:03:44.745Z,100540.28
2022-11-18T10:06:57.529Z,100540.44
2022-11-18T10:10:11.465Z,100554.13
2022-11-18T10:13:52.385Z,100566.06
2022-11-18T10:17:25.075Z,100573.06
2022-11-18T10:21:01.864Z,100579.06
2022-11-18T10:24:22.195Z,100571.25
2022-11-18T10:27:43.711Z,100576.19
2022-11-18T10:30:56.189Z,100575.88
2022-11-18T10:34:02.241Z,100567.84
2022-11-18T10:37:34.701Z,100561.44
2022-11-18T10:41:04.775Z,100552.66
2022-11-18T10:44:41.721Z,100574.16
2022-11-18T10:48:09.421Z,100577.16
2022-11-18T10:51:36.365Z,100565.84
2022-11-18T10:54:45.631Z,100560.66
2022-11-18T10:58:09.378Z,100576.81
2022-11-18T11:01:26.750Z,100557.69
2022-11-18T11:04:31.743Z,100555.03
2022-11-18T11:07:37.652Z,100569.44
2022-11-18T11:10:59.120Z,100566.13
2022-11-18T11:14:52.054Z,100558.47
2022-11-18T11:18:45.274Z,100561.38
2022-11-18T11:22:09.406Z,100551.72
2022-11-18T11:30:11.912Z,100558.06
2022-11-18T11:34:06.325Z,100544.63
2022-11-18T11:37:53.581Z,100558.69
2022-11-18T11:41:44.287Z,100575.00
2022-11-18T11:44:57.764Z,100585.13
2022-11-18T11:48:53.236Z,100591.03
2022-11-18T11:52:11.865Z,100584.94
2022-11-18T11:56:01.696Z,100596.31
2022-11-18T11:59:40.670Z,100586.38
2022-11-18T12:03:05.853Z,100586.91
2022-11-18T12:06:29.587Z,100594.06
2022-11-18T12:09:51.650Z,100601.00
2022-11-18T12:13:31.017Z,100602.84
2022-11-18T12:16:47.538Z,100603.81
2022-11-18T12:19:53.084Z,100618.50
2022-11-18T12:23:13.530Z,100606.41
2022-11-18T12:26:35.186Z,100613.31
2022-11-18T12:29:48.265Z,100613.22
2022-11-18T12:32:57.054Z,100602.97
2022-11-18T12:36:04.681Z,100614.13
2022-11-18T12:39:25.298Z,100621.00
2022-11-18T12:43:05.747Z,100622.88
2022-11-18T12:46:29.143Z,100616.69
2022-11-18T12:49:34.367Z,100608.03
2022-11-18T12:52:41.802Z,100630.41
2022-11-18T12:55:49.299Z,100637.34
2022-11-18T12:59:01.994Z,100635.69
2022-11-18T13:02:30.534Z,100640.81
2022-11-18T13:05:35.754Z,100633.94
2022-11-18T13:08:41.841Z,100642.56
2022-11-18T13:12:03.789Z,100646.00
2022-11-18T13:15:31.127Z,100641.69
2022-11-18T13:18:52.588Z,100646.88
2022-11-18T13:22:17.719Z,100637.41
2022-11-18T13:25:26.212Z,100646.06
2022-11-18T13:28:57.386Z,100642.56
2022-11-18T13:32:27.646Z,100649.50
2022-11-18T13:35:32.290Z,100647.72
2022-11-18T13:38:36.583Z,100659.88
2022-11-18T13:41:40.911Z,100663.28
2022-11-18T13:45:05.570Z,100673.66
2022-11-18T13:48:15.046Z,100671.25
2022-11-18T13:51:20.336Z,100676.34
2022-11-18T13:54:27.192Z,100677.16
2022-11-18T13:57:33.064Z,100696.16
2022-11-18T14:00:37.945Z,100690.16
2022-11-18T14:04:06.812Z,100696.19
2022-11-18T14:07:33.881Z,100724.72
2022-11-18T14:10:45.188Z,100730.00
2022-11-18T14:13:54.588Z,100722.25
2022-11-18T14:17:26.934Z,100716.94
2022-11-18T14:21:03.371Z,100721.94
2022-11-18T14:24:27.610Z,100718.53
2022-11-18T14:27:43.340Z,100710.75
2022-11-18T14:31:23.524Z,100716.75
2022-11-18T14:34:27.961Z,100727.22
2022-11-18T14:37:32.197Z,100725.50
2022-11-18T14:40:36.412Z,100712.47
2022-11-18T14:43:41.025Z,100713.25
2022-11-18T14:46:59.356Z,100723.72
2022-11-18T14:50:03.979Z,100722.88
2022-11-18T14:53:12.338Z,100741.94
2022-11-18T14:56:31.741Z,100748.16
2022-11-18T14:59:36.285Z,100756.97
2022-11-18T15:02:40.700Z,100758.72
2022-11-18T15:05:45.268Z,100758.72
2022-11-18T15:08:53.061Z,100767.44
2022-11-18T15:11:57.452Z,100765.81
2022-11-18T15:15:01.624Z,100774.56
2022-11-18T15:18:05.908Z,100779.84
2022-11-18T15:21:10.930Z,100789.38
2022-11-18T15:24:15.736Z,100805.00
2022-11-18T15:27:20.976Z,100812.00
2022-11-18T15:30:25.276Z,100816.31
2022-11-18T15:33:29.525Z,100822.47
2022-11-18T15:36:33.990Z,100823.38
2022-11-18T15:39:38.372Z,100833.78
2022-11-18T15:42:51.505Z,100830.28
2022-11-18T15:45:58.383Z,100832.00
2022-11-18T15:49:09.245Z,100834.56
2022-11-18T15:52:14.186Z,100830.28
2022-11-18T15:55:18.697Z,100831.25
2022-11-18T15:58:23.349Z,100830.41
2022-11-18T16:01:33.403Z,100844.25
2022-11-18T16:04:37.844Z,100855.53
2022-11-18T16:07:42.139Z,100859.88
2022-11-18T16:11:05.260Z,100874.59
2022-11-18T16:14:13.163Z,100875.56
2022-11-18T16:17:17.454Z,100880.75
2022-11-18T16:20:21.742Z,100883.38
2022-11-18T16:23:27.218Z,100888.56
2022-11-18T16:26:36.252Z,100887.72
2022-11-18T16:29:41.039Z,100889.47
2022-11-18T16:32:45.486Z,100898.91
2022-11-18T16:35:51.088Z,100900.66
2022-11-18T16:38:55.671Z,100900.69
2022-11-18T16:42:08.262Z,100911.91
2022-11-18T16:45:13.492Z,100911.91
2022-11-18T16:48:18.641Z,100915.41
2022-11-18T16:51:26.940Z,100911.13
2022-11-18T16:54:32.521Z,100918.94
2022-11-18T16:57:38.084Z,100923.28
2022-11-18T17:01:09.633Z,100926.69
2022-11-18T17:04:07.885Z,100933.63
2022-11-18T17:07:13.494Z,100929.34
2022-11-18T17:10:21.415Z,100933.66
2022-11-18T17:13:28.194Z,100927.66
2022-11-18T17:16:32.715Z,100937.16
2022-11-18T17:19:39.721Z,100943.22
2022-11-18T17:22:44.559Z,100933.75
2022-11-18T17:25:49.122Z,100953.56
2022-11-18T17:28:58.366Z,100952.66
2022-11-18T17:32:03.008Z,100956.13
2022-11-18T17:35:08.663Z,100955.25
2022-11-18T17:38:13.215Z,100955.22
2022-11-18T17:41:39.609Z,100946.56
2022-11-18T17:44:44.406Z,100950.88
2022-11-18T17:47:48.647Z,100962.13
2022-11-18T17:50:53.682Z,100961.28
2022-11-18T17:53:58.528Z,100970.78
2022-11-18T17:57:03.638Z,100968.16
2022-11-18T18:00:09.608Z,100965.56
2022-11-18T18:03:13.855Z,100969.84
2022-11-18T18:06:20.934Z,100972.47
2022-11-18T18:09:30.552Z,100986.31
2022-11-18T18:12:55.161Z,100978.56
2022-11-18T18:16:01.932Z,100988.09
2022-11-18T18:19:08.022Z,100981.22
2022-11-18T18:22:15.723Z,100976.94
2022-11-18T18:25:20.245Z,100974.34
2022-11-18T18:28:24.414Z,100990.75
2022-11-18T18:31:29.168Z,100992.50
2022-11-18T18:34:34.023Z,101001.19
2022-11-18T18:37:38.611Z,101006.34
2022-11-18T18:40:43.272Z,101016.72
2022-11-18T18:43:49.280Z,101021.91
2022-11-18T18:46:53.741Z,101022.78
2022-11-18T18:49:58.338Z,101029.72
2022-11-18T18:53:03.351Z,101042.63
2022-11-18T18:56:08.738Z,101046.13
2022-11-18T18:59:13.184Z,101050.44
2022-11-18T19:02:21.209Z,101055.63
2022-11-18T19:05:46.141Z,101059.06
2022-11-18T19:08:56.532Z,101073.72
2022-11-18T19:12:19.832Z,101077.13
2022-11-18T19:15:24.797Z,101082.31
2022-11-18T19:18:36.490Z,101084.06
2022-11-18T19:21:41.055Z,101079.72
2022-11-18T19:24:50.271Z,101088.38
2022-11-18T19:27:55.460Z,101094.38
2022-11-18T19:31:03.508Z,101090.06
2022-11-18T19:34:10.215Z,101094.38
2022-11-18T19:37:14.941Z,101093.53
2022-11-18T19:40:22.985Z,101090.97
2022-11-18T19:43:28.304Z,101101.25
2022-11-18T19:46:33.137Z,101103.88
2022-11-18T19:49:37.808Z,101109.03
2022-11-18T19:52:42.490Z,101106.44
2022-11-18T19:55:55.723Z,101105.56
2022-11-18T19:59:13.394Z,101105.56
2022-11-18T20:02:18.049Z,101103.88
2022-11-18T20:05:46.001Z,101111.63
2022-11-18T20:08:53.677Z,101112.47
2022-11-18T20:11:58.303Z,101113.31
2022-11-18T20:15:02.796Z,101111.63
2022-11-18T20:18:07.643Z,101122.81
2022-11-18T20:21:19.873Z,101127.13
2022-11-18T20:24:24.571Z,101123.69
2022-11-18T20:27:29.246Z,101111.63
2022-11-18T20:30:36.289Z,101115.09
2022-11-18T20:33:44.791Z,101115.94
2022-11-18T20:36:51.961Z,101117.69
2022-11-18T20:39:58.545Z,101116.84
2022-11-18T20:43:16.030Z,101122.84
2022-11-18T20:46:22.261Z,101119.41
2022-11-18T20:49:26.757Z,101117.69
2022-11-18T20:52:34.761Z,101139.19
2022-11-18T20:55:41.155Z,101139.19
2022-11-18T20:58:47.083Z,101140.06
2022-11-18T21:01:51.435Z,101148.66
2022-11-18T21:04:55.750Z,101149.56
2022-11-18T21:08:00.027Z,101159.88
2022-11-18T21:11:20.758Z,101159.00
2022-11-18T21:14:26.000Z,101157.28
2022-11-18T21:17:33.093Z,101172.78
2022-11-18T21:20:56.387Z,101177.06
2022-11-18T21:24:03.387Z,101182.22
2022-11-18T21:27:07.915Z,101186.53
2022-11-18T21:30:12.854Z,101195.13
2022-11-18T21:33:20.177Z,101202.03
2022-11-18T21:36:26.681Z,101193.44
2022-11-18T21:39:32.034Z,101197.75
2022-11-18T21:42:37.569Z,101198.59
2022-11-18T21:45:45.256Z,101198.59
2022-11-18T21:48:59.933Z,101203.75
2022-11-18T21:52:04.957Z,101202.88
2022-11-18T21:55:09.554Z,101202.03
2022-11-18T21:58:16.368Z,101212.34
2022-11-18T22:01:24.864Z,101215.75
2022-11-18T22:04:47.534Z,101217.50
2022-11-18T22:07:55.289Z,101224.34
2022-11-18T22:11:00.558Z,101220.94
2022-11-18T22:14:08.213Z,101226.09
2022-11-18T22:17:15.964Z,101224.38
2022-11-18T22:20:22.893Z,101224.38
2022-11-18T22:23:29.375Z,101226.06
2022-11-18T22:26:34.221Z,101232.09
2022-11-18T22:29:38.981Z,101231.22
2022-11-18T22:32:43.542Z,101232.94
2022-11-18T22:35:48.262Z,101242.44
2022-11-18T22:38:54.589Z,101241.56
2022-11-18T22:42:17.592Z,101238.13
2022-11-18T22:45:22.304Z,101245.00
2022-11-18T22:48:27.383Z,101236.38
2022-11-18T22:51:32.657Z,101241.53
2022-11-18T22:54:39.170Z,101246.72
2022-11-18T22:57:45.254Z,101244.13
2022-11-18T23:00:49.465Z,101248.41
2022-11-18T23:03:54.818Z,101244.94
2022-11-18T23:06:59.357Z,101246.66
2022-11-18T23:10:04.413Z,101244.94
2022-11-18T23:13:29.556Z,101245.81
2022-11-18T23:16:41.648Z,101255.22
2022-11-18T23:19:47.045Z,101255.25
2022-11-18T23:22:53.827Z,101250.97
2022-11-18T23:26:06.103Z,101250.06
2022-11-18T23:29:12.607Z,101253.53
2022-11-18T23:32:17.171Z,101257.84
2022-11-18T23:35:21.752Z,101263.88
2022-11-18T23:38:32.215Z,101255.22
2022-11-18T23:41:36.940Z,101261.28
2022-11-18T23:44:49.179Z,101253.53
2022-11-18T23:47:54.125Z,101263.81
2022-11-18T23:51:03.491Z,101250.91
2022-11-18T23:54:09.145Z,101250.06
2022-11-18T23:57:13.576Z,101250.03
